Kendall Tamiami Executive Airport
KTMB : rendu visible

Aérodrome :











RETROUVEZ-NOUS SUR...

 
LOGIN :

S'inscrire | Disclaimer

   EN    FR    IT 

 









Légende :    VFR   VFR Marginal   IFR   IFR Intensif   IFR Très Intensif
Visi : 
Plafond : 
>= 8 km
>= 3000ft
5 à 8 km
1000 à 3000 ft
1500m à 5 km
500 à 1000 ft
800 à 1500m
200 à 500 ft
< 800m
< 200 ft
Symboles :   Orages  Brouillard  Fortes neiges  Fortes précipitations  Vent > 20 kt






- Altitude de l'aérodrome : 8 ft


KTMB - Kendall Tamiami Executive

DERNIER METAR :
  • 141353Z 05007KT 10SM SCT025 BKN030 BKN042 24/23 A3006 RMK AO2 RAB12E22 SLP179 P0000 T02440233

METARs EXPIRÉS :
  • 141317Z 05007KT 10SM -RA BKN022 BKN027 OVC032 24/23 A3005 RMK AO2 RAB12 P0000 T02390233
  • 141253Z 05009KT 10SM SCT022 BKN031 OVC065 24/23 A3005 RMK AO2 SLP175 T02390233
  • 141153Z 06007KT 10SM FEW021 BKN046 OVC075 23/23 A3003 RMK AO2 RAE36 SLP168 P0000 60020 70034 T02280228 10244 20217 53010

TAF KTMB
Valide du 14 à 12h jusqu'au 15 à 12h UTC


141120Z 1412/1512 08007KT P6SM VCSH SCT025 BKN040
FM141500 10012KT P6SM VCSH SCT025 BKN050 BKN100
FM150000 VRB03KT P6SM SCT040 BKN120



MET'MAP, la Météo Aéronautique d'un coup d'oeil ! - Copyright ORBIFLY Décembre 2007 - Disclaimer

ORBIFLY MET'MAP TEAM :

Programmation & Développement : Alexandra Zaïnal
Conception & Développement : Baudouin d'Aumeries
Co-Programmation & Développement : Marc-Olivier Méhu
Soutien technique & logistique : Manuel Goepfert

Contact : metmap@orbifly.com




SOURCES & CREDITS :

   NOAA       Earth
Advisory